createdAt,value
2022-12-18T00:02:13.494Z,3.63
2022-12-18T00:04:40.245Z,3.67
2022-12-18T00:07:06.884Z,6.63
2022-12-18T00:09:40.158Z,4.47
2022-12-18T00:14:45.315Z,4.77
2022-12-18T00:17:12.048Z,6.23
2022-12-18T00:19:38.627Z,6.30
2022-12-18T00:22:06.069Z,5.33
2022-12-18T00:24:32.804Z,8.90
2022-12-18T00:26:59.357Z,4.80
2022-12-18T00:29:25.882Z,5.07
2022-12-18T00:31:52.571Z,10.57
2022-12-18T00:34:19.161Z,5.47
2022-12-18T00:36:49.128Z,5.20
2022-12-18T00:39:15.833Z,5.55
2022-12-18T00:42:01.246Z,3.73
2022-12-18T00:44:27.841Z,10.97
2022-12-18T00:46:54.409Z,8.13
2022-12-18T00:49:21.376Z,6.33
2022-12-18T00:51:48.448Z,8.23
2022-12-18T00:54:15.384Z,5.27
2022-12-18T00:56:49.978Z,4.90
2022-12-18T00:59:17.728Z,4.53
2022-12-18T01:01:44.793Z,5.73
2022-12-18T01:04:11.556Z,4.53
2022-12-18T01:06:38.189Z,2.23
2022-12-18T01:09:05.548Z,4.63
2022-12-18T01:11:32.138Z,8.40
2022-12-18T01:13:58.811Z,4.13
2022-12-18T01:16:25.433Z,7.77
2022-12-18T01:18:53.865Z,3.63
2022-12-18T01:21:21.287Z,5.40
2022-12-18T01:23:47.955Z,6.93
2022-12-18T01:26:18.189Z,4.10
2022-12-18T01:28:45.544Z,4.70
2022-12-18T01:31:27.935Z,9.43
2022-12-18T01:33:55.155Z,3.70
2022-12-18T01:36:27.890Z,5.60
2022-12-18T01:38:54.734Z,5.83
2022-12-18T01:41:27.927Z,4.40
2022-12-18T01:43:57.969Z,8.13
2022-12-18T01:46:26.843Z,11.07
2022-12-18T01:49:03.095Z,4.23
2022-12-18T01:51:31.352Z,5.13
2022-12-18T01:54:00.146Z,7.67
2022-12-18T01:56:26.809Z,3.63
2022-12-18T01:59:12.658Z,5.37
2022-12-18T02:01:39.322Z,5.97
2022-12-18T02:04:27.270Z,7.83
2022-12-18T02:07:31.724Z,3.80
2022-12-18T02:09:58.238Z,5.00
2022-12-18T02:12:28.863Z,3.00
2022-12-18T02:15:10.365Z,6.75
2022-12-18T02:17:43.980Z,6.90
2022-12-18T02:20:18.263Z,5.43
2022-12-18T02:22:44.729Z,6.53
2022-12-18T02:25:29.539Z,5.87
2022-12-18T02:28:02.546Z,8.97
2022-12-18T02:30:34.033Z,5.60
2022-12-18T02:33:04.957Z,4.97
2022-12-18T02:35:35.468Z,6.33
2022-12-18T02:38:04.102Z,6.23
2022-12-18T02:40:32.070Z,8.90
2022-12-18T02:43:13.737Z,4.07
2022-12-18T02:45:54.794Z,8.60
2022-12-18T02:48:28.921Z,5.70
2022-12-18T02:51:24.920Z,6.63
2022-12-18T02:53:59.438Z,5.13
2022-12-18T02:56:51.964Z,3.90
2022-12-18T02:59:25.478Z,3.73
2022-12-18T03:01:58.192Z,7.33
2022-12-18T03:05:02.060Z,4.27
2022-12-18T03:07:39.215Z,8.03
2022-12-18T03:10:09.324Z,2.10
2022-12-18T03:12:41.414Z,4.13
2022-12-18T03:15:08.064Z,7.37
2022-12-18T03:17:36.095Z,4.17
2022-12-18T03:20:14.036Z,7.53
2022-12-18T03:22:44.240Z,5.93
2022-12-18T03:25:13.985Z,5.10
2022-12-18T03:27:47.476Z,6.70
2022-12-18T03:30:16.067Z,4.17
2022-12-18T03:32:59.986Z,5.30
2022-12-18T03:35:32.800Z,6.57
2022-12-18T03:37:59.696Z,4.80
2022-12-18T03:40:36.282Z,5.50
2022-12-18T03:43:21.888Z,10.50
2022-12-18T03:45:55.566Z,4.10
2022-12-18T03:48:29.075Z,6.07
2022-12-18T03:51:03.080Z,7.37
2022-12-18T03:53:35.575Z,4.43
2022-12-18T03:56:04.992Z,8.23
2022-12-18T03:58:34.991Z,6.03
2022-12-18T04:01:04.529Z,6.88
2022-12-18T04:03:33.265Z,7.20
2022-12-18T04:06:01.891Z,8.60
2022-12-18T04:08:29.525Z,5.70
2022-12-18T04:10:56.205Z,7.00
2022-12-18T04:13:24.457Z,4.93
2022-12-18T04:15:51.248Z,4.60
2022-12-18T04:18:17.830Z,7.63
2022-12-18T04:20:44.399Z,7.67
2022-12-18T04:23:10.988Z,6.70
2022-12-18T04:25:37.617Z,7.80
2022-12-18T04:28:04.273Z,7.57
2022-12-18T04:30:30.908Z,9.43
2022-12-18T04:32:57.517Z,6.23
2022-12-18T04:35:24.080Z,6.27
2022-12-18T04:37:50.658Z,4.97
2022-12-18T04:40:18.609Z,6.50
2022-12-18T04:42:45.181Z,7.37
2022-12-18T04:45:11.941Z,7.93
2022-12-18T04:47:38.501Z,7.83
2022-12-18T04:50:05.715Z,5.07
2022-12-18T04:52:32.308Z,8.53
2022-12-18T04:54:58.909Z,7.47
2022-12-18T04:57:25.461Z,6.27
2022-12-18T04:59:52.036Z,8.97
2022-12-18T05:02:18.796Z,10.77
2022-12-18T05:04:45.425Z,10.87
2022-12-18T05:07:12.004Z,6.93
2022-12-18T05:09:38.581Z,3.63
2022-12-18T05:12:05.353Z,4.23
2022-12-18T05:14:31.933Z,10.40
2022-12-18T05:17:01.043Z,7.37
2022-12-18T05:19:27.997Z,7.70
2022-12-18T05:21:54.598Z,6.70
2022-12-18T05:24:21.181Z,4.23
2022-12-18T05:26:47.722Z,7.20
2022-12-18T05:29:14.276Z,8.77
2022-12-18T05:31:41.550Z,7.97
2022-12-18T05:34:09.574Z,7.03
2022-12-18T05:36:37.534Z,6.63
2022-12-18T05:39:04.318Z,6.27
2022-12-18T05:41:30.996Z,8.33
2022-12-18T05:43:57.762Z,7.00
2022-12-18T05:46:25.290Z,8.10
2022-12-18T05:48:52.589Z,7.07
2022-12-18T05:51:22.010Z,5.53
2022-12-18T05:53:49.224Z,6.33
2022-12-18T05:56:18.787Z,6.77
2022-12-18T05:58:46.260Z,6.10
2022-12-18T06:01:17.524Z,5.90
2022-12-18T06:03:45.106Z,5.30
2022-12-18T06:06:26.654Z,8.90
2022-12-18T06:08:54.416Z,5.43
2022-12-18T06:11:26.306Z,4.37
2022-12-18T06:13:58.214Z,5.87
2022-12-18T06:16:25.750Z,6.67
2022-12-18T06:18:52.410Z,7.63
2022-12-18T06:21:18.965Z,7.60
2022-12-18T06:23:45.540Z,5.83
2022-12-18T06:26:13.694Z,7.17
2022-12-18T06:28:40.500Z,6.33
2022-12-18T06:31:08.266Z,5.57
2022-12-18T06:33:35.649Z,5.40
2022-12-18T06:36:08.051Z,4.03
2022-12-18T06:38:35.857Z,14.07
2022-12-18T06:41:10.067Z,11.67
2022-12-18T06:43:37.857Z,8.37
2022-12-18T06:46:06.025Z,5.53
2022-12-18T06:48:33.247Z,5.10
2022-12-18T06:51:00.196Z,3.23
2022-12-18T06:53:26.800Z,6.20
2022-12-18T06:55:53.452Z,7.00
2022-12-18T06:58:20.115Z,9.23
2022-12-18T07:00:46.752Z,4.07
2022-12-18T07:03:13.444Z,4.20
2022-12-18T07:05:43.246Z,8.33
2022-12-18T07:08:09.823Z,10.40
2022-12-18T07:10:47.548Z,7.70
2022-12-18T07:13:16.565Z,6.37
2022-12-18T07:15:43.708Z,6.13
2022-12-18T07:18:10.916Z,6.10
2022-12-18T07:20:37.725Z,7.37
2022-12-18T07:23:06.119Z,6.90
2022-12-18T07:25:36.792Z,8.83
2022-12-18T07:28:04.183Z,10.75
2022-12-18T07:30:30.826Z,6.43
2022-12-18T07:32:57.514Z,9.93
2022-12-18T07:35:25.323Z,10.70
2022-12-18T07:37:52.185Z,6.90
2022-12-18T07:40:18.834Z,5.53
2022-12-18T07:42:45.390Z,4.27
2022-12-18T07:45:12.033Z,6.20
2022-12-18T07:47:38.825Z,14.00
2022-12-18T07:50:06.295Z,9.10
2022-12-18T07:52:32.866Z,8.30
2022-12-18T07:54:59.956Z,9.80
2022-12-18T07:57:49.406Z,11.57
2022-12-18T08:00:13.960Z,6.67
2022-12-18T08:02:40.715Z,7.37
2022-12-18T08:05:09.364Z,6.50
2022-12-18T08:07:36.033Z,13.07
2022-12-18T08:10:02.634Z,7.10
2022-12-18T08:12:29.292Z,6.77
2022-12-18T08:14:55.853Z,8.53
2022-12-18T08:17:22.480Z,7.03
2022-12-18T08:19:49.059Z,4.27
2022-12-18T08:22:15.659Z,10.90
2022-12-18T08:24:42.378Z,8.80
2022-12-18T08:29:56.297Z,6.87
2022-12-18T08:32:22.940Z,8.80
2022-12-18T08:34:49.611Z,5.43
2022-12-18T08:37:16.185Z,9.47
2022-12-18T08:39:42.777Z,6.97
2022-12-18T08:42:28.135Z,5.17
2022-12-18T08:44:54.747Z,8.83
2022-12-18T08:47:21.392Z,6.17
2022-12-18T08:49:48.129Z,7.03
2022-12-18T08:52:14.732Z,8.80
2022-12-18T08:54:41.336Z,10.23
2022-12-18T08:57:07.893Z,8.40
2022-12-18T08:59:34.421Z,9.10
2022-12-18T09:02:01.277Z,3.70
2022-12-18T09:04:28.095Z,5.43
2022-12-18T09:06:54.604Z,12.57
2022-12-18T09:09:21.250Z,10.70
2022-12-18T09:11:47.837Z,9.53
2022-12-18T09:14:14.393Z,10.87
2022-12-18T09:16:41.088Z,16.10
2022-12-18T09:19:07.950Z,5.40
2022-12-18T09:21:37.420Z,9.40
2022-12-18T09:24:06.992Z,11.07
2022-12-18T09:26:35.589Z,12.13
2022-12-18T09:29:03.561Z,10.30
2022-12-18T09:31:30.114Z,8.73
2022-12-18T09:33:57.759Z,10.47
2022-12-18T09:36:24.443Z,12.73
2022-12-18T09:38:51.598Z,10.80
2022-12-18T09:41:27.323Z,8.90
2022-12-18T09:44:00.612Z,9.20
2022-12-18T09:46:44.159Z,8.57
2022-12-18T09:49:21.447Z,14.33
2022-12-18T09:51:50.582Z,21.07
2022-12-18T09:54:23.818Z,11.63
2022-12-18T09:56:50.409Z,14.83
2022-12-18T09:59:24.876Z,11.93
2022-12-18T10:01:52.050Z,11.77
2022-12-18T10:04:18.827Z,14.23
2022-12-18T10:06:55.930Z,11.57
2022-12-18T10:09:34.933Z,10.67
2022-12-18T10:12:07.539Z,11.07
2022-12-18T10:14:49.324Z,11.23
2022-12-18T10:17:39.450Z,7.33
2022-12-18T10:20:26.625Z,7.03
2022-12-18T10:23:46.528Z,5.57
2022-12-18T10:26:14.879Z,16.80
2022-12-18T10:28:42.891Z,14.40
2022-12-18T10:31:19.814Z,12.50
2022-12-18T10:33:46.772Z,13.27
2022-12-18T10:36:13.642Z,14.50
2022-12-18T10:38:40.963Z,15.27
2022-12-18T10:41:27.751Z,12.47
2022-12-18T10:44:27.126Z,8.70
2022-12-18T10:47:10.106Z,13.47
2022-12-18T10:49:53.986Z,8.63
2022-12-18T10:52:26.267Z,12.00
2022-12-18T10:54:56.603Z,15.27
2022-12-18T10:57:34.334Z,13.65
2022-12-18T11:00:22.278Z,15.47
2022-12-18T11:02:49.343Z,9.40
2022-12-18T11:05:34.922Z,11.10
2022-12-18T11:08:02.768Z,12.90
2022-12-18T11:10:38.819Z,9.40
2022-12-18T11:13:32.934Z,11.60
2022-12-18T11:16:00.579Z,14.37
2022-12-18T11:18:31.110Z,25.67
2022-12-18T11:21:02.803Z,14.18
2022-12-18T11:23:29.482Z,12.77
2022-12-18T11:25:59.498Z,10.53
2022-12-18T11:28:27.736Z,21.73
2022-12-18T11:31:12.865Z,20.10
2022-12-18T11:33:53.324Z,9.07
2022-12-18T11:36:34.905Z,13.73
2022-12-18T11:39:25.916Z,13.40
2022-12-18T11:42:15.448Z,22.60
2022-12-18T11:45:03.407Z,12.43
2022-12-18T11:47:50.632Z,13.33
2022-12-18T11:50:23.132Z,12.53
2022-12-18T11:52:55.917Z,19.50
2022-12-18T11:55:57.666Z,14.57
2022-12-18T11:58:52.589Z,17.87
2022-12-18T12:01:40.351Z,21.37
2022-12-18T12:04:31.959Z,19.23
2022-12-18T12:07:10.557Z,18.13
2022-12-18T12:10:15.134Z,14.33
2022-12-18T12:13:11.887Z,13.23
2022-12-18T12:16:17.161Z,19.53
2022-12-18T12:18:59.608Z,13.43
2022-12-18T12:21:35.484Z,18.07
2022-12-18T12:24:11.292Z,22.97
2022-12-18T12:26:58.908Z,16.40
2022-12-18T12:29:25.461Z,15.80
2022-12-18T12:31:58.800Z,15.20
2022-12-18T12:35:09.859Z,19.83
2022-12-18T12:37:51.920Z,22.45
2022-12-18T12:40:50.834Z,16.83
2022-12-18T12:43:28.046Z,19.20
2022-12-18T12:46:01.266Z,18.97
2022-12-18T12:48:34.008Z,19.23
2022-12-18T12:51:05.301Z,14.43
2022-12-18T12:56:07.890Z,16.97
2022-12-18T12:58:57.774Z,15.53
2022-12-18T13:01:39.672Z,21.80
2022-12-18T13:04:58.984Z,20.37
2022-12-18T13:07:33.666Z,21.37
2022-12-18T13:10:20.750Z,16.43
2022-12-18T13:13:23.324Z,17.87
2022-12-18T13:16:08.116Z,21.93
2022-12-18T13:18:35.802Z,18.93
2022-12-18T13:21:13.576Z,24.67
2022-12-18T13:23:41.406Z,20.00
2022-12-18T13:26:11.559Z,17.53
2022-12-18T13:28:47.421Z,19.53
2022-12-18T13:31:42.384Z,24.70
2022-12-18T13:34:29.168Z,12.80
2022-12-18T13:37:17.966Z,14.93
2022-12-18T13:39:44.727Z,20.77
2022-12-18T13:42:31.339Z,16.90
2022-12-18T13:44:59.006Z,17.60
2022-12-18T13:47:33.896Z,13.43
2022-12-18T13:50:01.539Z,18.60
2022-12-18T13:52:34.423Z,15.90
2022-12-18T13:55:04.425Z,16.13
2022-12-18T13:57:34.217Z,19.97
2022-12-18T14:00:23.462Z,19.57
2022-12-18T14:02:51.394Z,15.90
2022-12-18T14:05:31.125Z,17.80
2022-12-18T14:08:06.855Z,16.03
2022-12-18T14:10:47.619Z,17.47
2022-12-18T14:13:29.124Z,18.20
2022-12-18T14:15:57.326Z,14.20
2022-12-18T14:18:46.950Z,19.53
2022-12-18T14:21:35.071Z,18.43
2022-12-18T14:24:19.495Z,20.23
2022-12-18T14:26:47.429Z,18.70
2022-12-18T14:29:29.843Z,23.70
2022-12-18T14:32:09.413Z,14.50
2022-12-18T14:34:38.570Z,17.00
2022-12-18T14:37:05.715Z,13.83
2022-12-18T14:39:32.307Z,21.70
2022-12-18T14:41:58.861Z,18.37
2022-12-18T14:44:28.550Z,22.00
2022-12-18T14:46:58.027Z,22.57
2022-12-18T14:49:35.318Z,16.60
2022-12-18T14:52:15.874Z,18.20
2022-12-18T14:54:48.607Z,16.97
2022-12-18T14:57:23.688Z,18.23
2022-12-18T14:59:51.167Z,16.97
2022-12-18T15:02:29.030Z,19.20
2022-12-18T15:05:20.585Z,18.67
2022-12-18T15:07:49.800Z,25.37
2022-12-18T15:10:28.250Z,24.33
2022-12-18T15:12:57.954Z,16.77
2022-12-18T15:15:40.579Z,21.10
2022-12-18T15:18:13.337Z,15.73
2022-12-18T15:20:46.443Z,20.90
2022-12-18T15:23:35.129Z,21.20
2022-12-18T15:26:07.084Z,25.00
2022-12-18T15:28:40.492Z,16.93
2022-12-18T15:33:40.676Z,19.47
2022-12-18T15:36:13.087Z,26.00
2022-12-18T15:38:39.709Z,18.03
2022-12-18T15:41:11.587Z,17.67
2022-12-18T15:43:40.958Z,32.30
2022-12-18T15:46:15.938Z,18.77
2022-12-18T15:48:50.844Z,23.20
2022-12-18T15:51:21.642Z,16.97
2022-12-18T15:53:54.976Z,24.50
2022-12-18T15:56:40.177Z,22.67
2022-12-18T15:59:13.418Z,28.80
2022-12-18T16:01:42.865Z,17.27
2022-12-18T16:04:12.881Z,15.97
2022-12-18T16:06:58.057Z,14.10
2022-12-18T16:09:26.439Z,18.57
2022-12-18T16:11:53.458Z,17.33
2022-12-18T16:14:24.742Z,22.03
2022-12-18T16:16:57.482Z,23.20
2022-12-18T16:19:24.812Z,16.37
2022-12-18T16:21:52.905Z,22.07
2022-12-18T16:24:25.896Z,17.27
2022-12-18T16:26:53.830Z,16.90
2022-12-18T16:29:25.717Z,20.87
2022-12-18T16:31:53.080Z,17.23
2022-12-18T16:34:31.475Z,21.10
2022-12-18T16:37:05.504Z,23.17
2022-12-18T16:39:35.436Z,18.27
2022-12-18T16:42:05.683Z,15.73
2022-12-18T16:44:33.934Z,14.45
2022-12-18T16:47:02.938Z,16.33
2022-12-18T16:49:30.537Z,16.57
2022-12-18T16:51:57.463Z,16.63
2022-12-18T16:54:24.185Z,22.50
2022-12-18T16:56:51.943Z,16.23
2022-12-18T16:59:19.074Z,17.27
2022-12-18T17:01:46.874Z,17.20
2022-12-18T17:04:13.600Z,13.87
2022-12-18T17:06:43.320Z,18.63
2022-12-18T17:09:14.597Z,16.37
2022-12-18T17:11:41.332Z,19.17
2022-12-18T17:14:10.073Z,18.70
2022-12-18T17:16:36.901Z,19.63
2022-12-18T17:19:04.790Z,19.60
2022-12-18T17:21:31.464Z,19.87
2022-12-18T17:24:01.415Z,12.93
2022-12-18T17:26:28.843Z,15.33
2022-12-18T17:28:58.823Z,19.07
2022-12-18T17:31:28.167Z,16.00
2022-12-18T17:33:55.054Z,17.67
2022-12-18T17:36:22.861Z,16.87
2022-12-18T17:38:54.106Z,13.80
2022-12-18T17:41:21.909Z,15.63
2022-12-18T17:43:55.829Z,17.70
2022-12-18T17:46:22.767Z,20.67
2022-12-18T17:48:49.489Z,19.73
2022-12-18T17:51:16.993Z,18.37
2022-12-18T17:53:44.312Z,16.30
2022-12-18T17:56:16.230Z,18.70
2022-12-18T17:58:44.098Z,19.40
2022-12-18T18:01:14.007Z,18.20
2022-12-18T18:03:43.640Z,18.00
2022-12-18T18:06:10.751Z,16.23
2022-12-18T18:08:37.396Z,15.27
2022-12-18T18:11:29.526Z,13.73
2022-12-18T18:14:02.502Z,11.40
2022-12-18T18:16:35.077Z,14.53
2022-12-18T18:19:04.277Z,18.23
2022-12-18T18:21:31.950Z,18.00
2022-12-18T18:24:03.349Z,18.27
2022-12-18T18:26:35.209Z,20.35
2022-12-18T18:29:05.169Z,17.27
2022-12-18T18:31:38.227Z,22.73
2022-12-18T18:34:08.105Z,21.70
2022-12-18T18:36:34.770Z,16.43
2022-12-18T18:39:02.327Z,14.67
2022-12-18T18:41:30.464Z,16.33
2022-12-18T18:43:58.572Z,17.27
2022-12-18T18:46:26.213Z,15.20
2022-12-18T18:48:53.211Z,16.70
2022-12-18T18:51:21.557Z,17.33
2022-12-18T18:53:50.275Z,15.37
2022-12-18T18:56:50.196Z,18.83
2022-12-18T18:59:06.336Z,15.63
2022-12-18T19:01:33.792Z,15.57
2022-12-18T19:04:00.827Z,12.97
2022-12-18T19:06:28.647Z,15.93
2022-12-18T19:08:57.304Z,23.30
2022-12-18T19:11:43.775Z,19.90
2022-12-18T19:14:12.424Z,15.97
2022-12-18T19:16:39.269Z,15.40
2022-12-18T19:19:06.511Z,17.90
2022-12-18T19:21:34.689Z,21.63
2022-12-18T19:24:02.774Z,12.53
2022-12-18T19:26:29.966Z,15.63
2022-12-18T19:29:08.449Z,19.77
2022-12-18T19:31:37.199Z,18.30
2022-12-18T19:34:08.045Z,17.93
2022-12-18T19:36:37.196Z,20.27
2022-12-18T19:39:12.380Z,15.37
2022-12-18T19:41:39.353Z,13.70
2022-12-18T19:44:08.185Z,15.63
2022-12-18T19:46:35.552Z,12.97
2022-12-18T19:49:02.852Z,15.57
2022-12-18T19:51:31.883Z,14.73
2022-12-18T19:54:01.646Z,17.97
2022-12-18T19:56:31.468Z,23.63
2022-12-18T19:58:58.191Z,19.50
2022-12-18T20:01:26.799Z,22.00
2022-12-18T20:03:58.071Z,18.30
2022-12-18T20:06:30.862Z,20.67
2022-12-18T20:09:01.322Z,14.10
2022-12-18T20:11:32.509Z,17.65
2022-12-18T20:16:25.652Z,13.23
2022-12-18T20:18:52.437Z,15.57
2022-12-18T20:21:19.623Z,38.47
2022-12-18T20:23:46.254Z,16.37
2022-12-18T20:26:12.997Z,16.27
2022-12-18T20:28:40.054Z,15.53
2022-12-18T20:31:10.499Z,17.77
2022-12-18T20:33:42.211Z,14.20
2022-12-18T20:36:14.299Z,16.53
2022-12-18T20:38:42.582Z,17.00
2022-12-18T20:41:18.031Z,18.23
2022-12-18T20:43:45.313Z,18.60
2022-12-18T20:46:13.722Z,27.80
2022-12-18T20:48:41.101Z,36.77
2022-12-18T20:51:11.094Z,23.47
2022-12-18T20:53:38.706Z,23.77
2022-12-18T20:56:21.971Z,21.77
2022-12-18T20:58:54.874Z,17.07
2022-12-18T21:01:23.307Z,15.13
2022-12-18T21:03:51.321Z,26.93
2022-12-18T21:06:20.665Z,25.57
2022-12-18T21:08:47.722Z,18.40
2022-12-18T21:11:36.016Z,19.10
2022-12-18T21:14:04.785Z,27.77
2022-12-18T21:16:31.565Z,20.70
2022-12-18T21:18:58.792Z,19.67
2022-12-18T21:21:26.875Z,19.73
2022-12-18T21:23:54.358Z,17.63
2022-12-18T21:26:24.040Z,17.23
2022-12-18T21:28:59.329Z,25.40
2022-12-18T21:31:28.701Z,21.27
2022-12-18T21:34:00.939Z,22.07
2022-12-18T21:36:29.470Z,20.60
2022-12-18T21:38:57.374Z,22.60
2022-12-18T21:41:45.057Z,18.07
2022-12-18T21:44:17.548Z,17.63
2022-12-18T21:46:50.159Z,14.43
2022-12-18T21:49:22.623Z,21.10
2022-12-18T21:51:51.917Z,18.27
2022-12-18T21:54:19.116Z,23.57
2022-12-18T21:56:55.869Z,18.80
2022-12-18T21:59:33.525Z,19.83
2022-12-18T22:02:03.955Z,14.67
2022-12-18T22:04:30.916Z,16.48
2022-12-18T22:06:57.780Z,21.80
2022-12-18T22:09:25.305Z,18.23
2022-12-18T22:11:52.522Z,25.67
2022-12-18T22:14:19.813Z,20.57
2022-12-18T22:16:47.178Z,17.97
2022-12-18T22:19:15.056Z,22.07
2022-12-18T22:21:45.827Z,19.00
2022-12-18T22:24:19.601Z,19.63
2022-12-18T22:26:46.590Z,22.13
2022-12-18T22:29:37.477Z,20.47
2022-12-18T22:32:06.143Z,20.40
2022-12-18T22:34:36.616Z,19.43
2022-12-18T22:37:03.948Z,20.48
2022-12-18T22:39:31.004Z,22.47
2022-12-18T22:41:58.365Z,18.57
2022-12-18T22:44:25.056Z,22.50
2022-12-18T22:47:05.409Z,19.07
2022-12-18T22:49:35.171Z,18.40
2022-12-18T22:52:03.305Z,16.43
2022-12-18T22:54:29.863Z,17.27
2022-12-18T22:56:57.055Z,23.10
2022-12-18T22:59:23.906Z,20.90
2022-12-18T23:01:57.973Z,21.17
2022-12-18T23:04:35.895Z,18.93
2022-12-18T23:07:05.239Z,18.77
2022-12-18T23:09:32.704Z,19.73
2022-12-18T23:11:59.582Z,21.03
2022-12-18T23:14:26.261Z,19.37
2022-12-18T23:16:53.187Z,17.63
2022-12-18T23:19:20.413Z,19.30
2022-12-18T23:21:47.434Z,17.27
2022-12-18T23:24:14.328Z,18.10
2022-12-18T23:26:40.944Z,20.30
2022-12-18T23:29:08.042Z,18.53
2022-12-18T23:31:39.286Z,20.40
2022-12-18T23:34:07.518Z,25.70
2022-12-18T23:36:45.205Z,15.60
2022-12-18T23:39:22.390Z,18.93
2022-12-18T23:41:58.038Z,20.33
2022-12-18T23:44:24.971Z,18.47
2022-12-18T23:46:51.584Z,18.90
2022-12-18T23:49:18.303Z,18.33
2022-12-18T23:51:45.065Z,21.10
2022-12-18T23:54:11.613Z,22.37
2022-12-18T23:56:38.167Z,21.87
2022-12-18T23:59:05.045Z,15.73
